Time;durP1;ratioP1;P1;durP2;ratioP2;P2;SDS_P1;SDS_P2;PMS_P1;PMS_P2;Temp;Humidity;BMP_temperature;BMP_pressure;BME280_temperature;BME280_humidity;BME280_pressure;Samples;Min_cycle;Max_cycle;Signal;HPM_P1;HPM_P2
2023/03/07 00:00:59;;;;;;;35.60;25.17;;;9.10;99.10;;;;;;5094430;28;20035;-67
2023/03/07 00:03:24;;;;;;;28.52;20.70;;;9.20;99.30;;;;;;5093994;28;20081;-65
2023/03/07 00:06:03;;;;;;;27.05;19.90;;;9.20;99.40;;;;;;5094262;28;20024;-65
2023/03/07 00:08:29;;;;;;;28.08;21.48;;;9.20;99.60;;;;;;5094266;28;20065;-69
2023/03/07 00:10:55;;;;;;;22.02;17.40;;;9.30;99.60;;;;;;5093915;28;20036;-69
2023/03/07 00:13:20;;;;;;;33.67;25.88;;;9.30;98.80;;;;;;5094219;28;20020;-69
2023/03/07 00:15:46;;;;;;;25.00;19.48;;;9.20;99.10;;;;;;5094086;28;20039;-64
2023/03/07 00:18:12;;;;;;;26.20;19.02;;;9.10;99.20;;;;;;5093693;28;20026;-64
2023/03/07 00:20:37;;;;;;;26.63;19.55;;;9.10;99.20;;;;;;5093623;28;20031;-67
2023/03/07 00:23:03;;;;;;;28.70;19.73;;;9.20;99.70;;;;;;5093780;28;20482;-63
2023/03/07 00:25:29;;;;;;;31.52;21.83;;;9.20;98.80;;;;;;5093646;28;20023;-63
2023/03/07 00:27:55;;;;;;;24.00;17.98;;;9.20;99.10;;;;;;5093294;28;20097;-63
2023/03/07 00:30:20;;;;;;;24.33;18.38;;;9.20;99.00;;;;;;5094061;28;20123;-67
2023/03/07 00:32:46;;;;;;;36.97;23.52;;;9.20;98.70;;;;;;5093508;28;20019;-65
2023/03/07 00:35:12;;;;;;;26.02;21.13;;;9.20;98.30;;;;;;5093523;28;20382;-63
2023/03/07 00:37:37;;;;;;;34.53;24.35;;;9.20;98.50;;;;;;5093655;28;20069;-71
2023/03/07 00:40:05;;;;;;;26.48;21.13;;;9.10;98.40;;;;;;5093564;28;20075;-64
2023/03/07 00:42:31;;;;;;;25.90;19.38;;;9.00;99.00;;;;;;5093776;28;20088;-69
2023/03/07 00:44:56;;;;;;;25.08;18.35;;;9.10;99.30;;;;;;5093595;28;20016;-66
2023/03/07 00:47:22;;;;;;;24.58;17.80;;;9.10;99.30;;;;;;5093833;28;20095;-68
2023/03/07 00:49:48;;;;;;;23.85;17.77;;;9.10;99.00;;;;;;5093143;28;20427;-67
2023/03/07 00:52:13;;;;;;;22.23;17.17;;;9.20;98.80;;;;;;5093610;28;20081;-62
2023/03/07 00:54:39;;;;;;;26.80;18.48;;;9.20;98.30;;;;;;5093421;28;20024;-65
2023/03/07 00:57:05;;;;;;;24.95;17.92;;;9.20;98.30;;;;;;5093691;28;20024;-69
2023/03/07 00:59:31;;;;;;;26.13;19.13;;;9.20;98.10;;;;;;5093534;28;20024;-68
2023/03/07 01:01:56;;;;;;;27.20;20.33;;;9.20;98.20;;;;;;5095431;28;20082;-65
2023/03/07 01:04:22;;;;;;;26.08;19.00;;;9.20;98.20;;;;;;5097184;28;20027;-60
2023/03/07 01:06:48;;;;;;;24.60;18.63;;;9.10;98.70;;;;;;5097722;28;20073;-66
2023/03/07 01:09:13;;;;;;;25.55;18.27;;;9.10;98.30;;;;;;5097563;28;20489;-67
2023/03/07 01:11:39;;;;;;;23.08;17.80;;;9.10;98.20;;;;;;5097388;28;20103;-66
2023/03/07 01:14:05;;;;;;;25.08;18.35;;;9.10;98.10;;;;;;5097392;28;20096;-69
2023/03/07 01:16:33;;;;;;;24.00;17.75;;;9.10;98.10;;;;;;5097339;28;20027;-66
2023/03/07 01:19:05;;;;;;;22.42;17.05;;;9.00;97.80;;;;;;5097189;28;20098;-65
2023/03/07 01:21:34;;;;;;;27.75;20.08;;;8.90;97.80;;;;;;5079036;28;20067;-67
2023/03/07 01:24:00;;;;;;;34.30;25.60;;;8.90;98.00;;;;;;5097401;28;20028;-71
2023/03/07 01:26:28;;;;;;;27.13;21.83;;;8.70;99.00;;;;;;5097160;28;20114;-65
2023/03/07 01:28:56;;;;;;;27.98;19.98;;;8.50;99.60;;;;;;5097040;28;20055;-69
2023/03/07 01:31:23;;;;;;;24.45;18.38;;;8.50;99.80;;;;;;5097172;28;20050;-65
2023/03/07 01:33:51;;;;;;;23.60;17.52;;;8.50;99.80;;;;;;5097192;28;20016;-61
2023/03/07 01:36:20;;;;;;;21.83;17.13;;;8.50;99.80;;;;;;5097161;28;20016;-70
2023/03/07 01:38:49;;;;;;;27.45;19.77;;;8.50;99.70;;;;;;5096837;28;20126;-67
2023/03/07 01:41:15;;;;;;;32.20;21.75;;;8.40;99.50;;;;;;5097058;28;20020;-71
2023/03/07 01:43:41;;;;;;;28.02;19.55;;;8.40;99.90;;;;;;5097169;28;20386;-68
2023/03/07 01:46:16;;;;;;;31.67;22.02;;;8.30;99.90;;;;;;5096952;28;20103;-69
2023/03/07 01:49:09;;;;;;;48.25;32.40;;;8.30;99.90;;;;;;5096621;28;20016;-62
2023/03/07 01:51:38;;;;;;;65.15;41.97;;;8.30;99.90;;;;;;5096674;28;20027;-67
2023/03/07 01:54:06;;;;;;;56.97;38.67;;;8.10;99.90;;;;;;5096819;28;20024;-71
2023/03/07 01:56:35;;;;;;;56.85;37.30;;;7.90;99.90;;;;;;5096915;28;20020;-66
2023/03/07 01:59:01;;;;;;;55.78;36.28;;;7.80;99.90;;;;;;5096683;28;20034;-68
2023/03/07 02:01:27;;;;;;;46.55;31.90;;;7.70;99.90;;;;;;5096293;28;20397;-61
2023/03/07 02:04:12;;;;;;;49.55;33.72;;;7.70;99.90;;;;;;5096549;28;20474;-67
2023/03/07 02:06:38;;;;;;;44.28;29.80;;;7.70;99.90;;;;;;5096284;28;20470;-62
2023/03/07 02:09:11;;;;;;;36.40;25.98;;;7.60;99.90;;;;;;5096550;28;20031;-69
2023/03/07 02:11:39;;;;;;;35.70;23.77;;;7.60;99.90;;;;;;5096377;28;20145;-69
2023/03/07 02:14:05;;;;;;;29.98;21.48;;;7.70;99.90;;;;;;5095598;28;20106;-67
2023/03/07 02:16:30;;;;;;;29.80;20.13;;;7.80;99.90;;;;;;5096518;28;20123;-64
2023/03/07 02:18:56;;;;;;;26.25;19.38;;;7.80;99.90;;;;;;5096337;28;20130;-61
2023/03/07 02:21:50;;;;;;;27.70;19.70;;;7.90;99.90;;;;;;5096135;28;20021;-70
2023/03/07 02:24:49;;;;;;;28.00;19.63;;;7.90;99.90;;;;;;5096291;28;20016;-62
2023/03/07 02:27:15;;;;;;;32.05;22.17;;;7.80;99.90;;;;;;5082328;28;20086;-71
2023/03/07 02:29:40;;;;;;;26.60;17.50;;;7.70;99.90;;;;;;5096100;28;20032;-68
2023/03/07 02:32:07;;;;;;;28.83;20.73;;;7.60;99.90;;;;;;5095931;28;20017;-67
2023/03/07 02:34:33;;;;;;;26.65;19.08;;;7.50;99.90;;;;;;5096086;28;20024;-63
2023/03/07 02:37:23;;;;;;;23.02;17.10;;;7.40;99.90;;;;;;5096207;28;20027;-65
2023/03/07 02:39:49;;;;;;;20.73;15.55;;;7.30;99.90;;;;;;5095980;28;20122;-70
2023/03/07 02:42:26;;;;;;;39.47;25.70;;;7.20;99.90;;;;;;5095657;28;20437;-68
2023/03/07 02:45:01;;;;;;;27.02;19.20;;;7.30;99.90;;;;;;5095581;28;20048;-64
2023/03/07 02:47:27;;;;;;;28.10;18.42;;;7.20;99.90;;;;;;5095921;28;20046;-65
2023/03/07 02:49:53;;;;;;;39.65;27.38;;;7.10;99.90;;;;;;5095821;28;20024;-67
2023/03/07 02:52:20;;;;;;;27.00;19.00;;;6.90;99.90;;;;;;5096005;28;20464;-66
2023/03/07 02:54:46;;;;;;;38.47;25.83;;;6.90;99.90;;;;;;5095557;28;20016;-66
2023/03/07 02:57:12;;;;;;;33.15;23.63;;;7.00;99.90;;;;;;5095449;28;20035;-71
2023/03/07 02:59:38;;;;;;;28.98;20.45;;;6.90;99.90;;;;;;5095368;28;20028;-67
2023/03/07 03:02:04;;;;;;;28.00;19.52;;;6.90;99.90;;;;;;5095663;28;20027;-63
2023/03/07 03:04:29;;;;;;;22.98;17.67;;;7.00;99.90;;;;;;5095341;28;20023;-69
2023/03/07 03:06:55;;;;;;;26.00;17.65;;;7.00;99.90;;;;;;5095269;28;20020;-68
2023/03/07 03:09:21;;;;;;;32.60;22.00;;;7.00;99.90;;;;;;5095285;28;20039;-71
2023/03/07 03:11:47;;;;;;;24.02;17.98;;;7.00;99.90;;;;;;5095361;28;20027;-60
2023/03/07 03:14:12;;;;;;;36.63;25.75;;;6.80;99.90;;;;;;5095015;28;20096;-67
2023/03/07 03:16:39;;;;;;;50.67;34.40;;;6.90;99.90;;;;;;5095280;28;20020;-67
2023/03/07 03:19:05;;;;;;;43.03;29.92;;;6.90;99.90;;;;;;5094926;28;20031;-62
2023/03/07 03:21:31;;;;;;;49.45;32.60;;;7.00;99.90;;;;;;5095167;28;20055;-63
2023/03/07 03:23:57;;;;;;;50.70;35.25;;;7.10;99.90;;;;;;5095084;28;20048;-64
2023/03/07 03:26:23;;;;;;;43.75;32.22;;;7.20;99.90;;;;;;5094814;28;20051;-69
2023/03/07 03:28:49;;;;;;;41.90;29.42;;;7.00;99.90;;;;;;5094666;28;20062;-68
2023/03/07 03:31:15;;;;;;;48.58;32.60;;;7.00;99.90;;;;;;5094932;28;20016;-63
2023/03/07 03:33:45;;;;;;;40.08;28.55;;;7.00;99.90;;;;;;5094843;28;20016;-72
2023/03/07 03:36:15;;;;;;;34.35;24.73;;;7.00;99.90;;;;;;5094867;28;20032;-70
2023/03/07 03:38:41;;;;;;;39.30;27.90;;;6.90;99.90;;;;;;5094619;28;20073;-67
2023/03/07 03:41:11;;;;;;;35.45;24.50;;;7.00;99.90;;;;;;5094992;28;20427;-62
2023/03/07 03:43:37;;;;;;;29.95;22.00;;;6.80;99.90;;;;;;5094811;28;20473;-65
2023/03/07 03:46:03;;;;;;;34.58;24.48;;;6.80;99.90;;;;;;5094813;28;20085;-66
2023/03/07 03:48:29;;;;;;;29.80;20.58;;;6.70;99.90;;;;;;5094473;28;20024;-65
2023/03/07 03:51:05;;;;;;;33.47;23.50;;;6.70;99.90;;;;;;5094463;28;20474;-67
2023/03/07 03:53:32;;;;;;;35.10;25.67;;;6.70;99.90;;;;;;5094456;28;20362;-67
2023/03/07 03:56:19;;;;;;;39.20;27.50;;;6.60;99.90;;;;;;5094180;28;20048;-67
2023/03/07 03:58:50;;;;;;;34.45;23.33;;;6.40;99.90;;;;;;5094068;28;20016;-68
2023/03/07 04:01:17;;;;;;;34.75;22.73;;;6.30;99.90;;;;;;5094499;28;20035;-69
2023/03/07 04:03:46;;;;;;;44.05;29.05;;;6.30;99.90;;;;;;5094403;28;20024;-65
2023/03/07 04:06:15;;;;;;;40.17;27.05;;;6.20;99.90;;;;;;5094249;28;20466;-67
2023/03/07 04:08:42;;;;;;;45.08;30.38;;;6.10;99.90;;;;;;5093961;28;20024;-70
2023/03/07 04:11:08;;;;;;;35.63;24.48;;;6.20;99.90;;;;;;5094060;28;20043;-65
2023/03/07 04:13:35;;;;;;;45.60;30.77;;;6.30;99.90;;;;;;5094204;28;20490;-66
2023/03/07 04:16:01;;;;;;;42.33;28.73;;;6.40;99.90;;;;;;5094158;28;20020;-62
2023/03/07 04:18:27;;;;;;;32.17;22.73;;;6.30;99.90;;;;;;5094289;28;20462;-63
2023/03/07 04:20:53;;;;;;;29.23;20.42;;;6.20;99.90;;;;;;5094191;28;20027;-66
2023/03/07 04:23:20;;;;;;;25.20;19.02;;;6.10;99.90;;;;;;5094033;28;20054;-67
2023/03/07 04:25:55;;;;;;;24.52;17.13;;;6.20;99.90;;;;;;5093942;28;20106;-61
2023/03/07 04:28:26;;;;;;;20.83;15.82;;;6.30;99.90;;;;;;5093819;28;20434;-63
2023/03/07 04:30:52;;;;;;;22.38;16.10;;;6.40;99.90;;;;;;5094157;28;20485;-71
2023/03/07 04:33:19;;;;;;;18.95;14.00;;;6.40;99.90;;;;;;5093895;28;20105;-70
2023/03/07 04:35:45;;;;;;;21.85;15.95;;;6.40;99.90;;;;;;5093906;28;20373;-66
2023/03/07 04:38:13;;;;;;;18.88;14.55;;;6.50;99.90;;;;;;5093833;28;20035;-65
2023/03/07 04:40:39;;;;;;;18.50;13.93;;;6.40;99.90;;;;;;5093850;28;20377;-68
2023/03/07 04:43:04;;;;;;;20.58;16.13;;;6.40;99.90;;;;;;5093720;28;20095;-67
2023/03/07 04:45:33;;;;;;;19.13;14.65;;;6.40;99.90;;;;;;5093643;28;20020;-68
2023/03/07 04:47:59;;;;;;;19.13;14.40;;;6.40;99.90;;;;;;5093829;28;20012;-70
2023/03/07 04:50:24;;;;;;;27.88;19.40;;;6.30;99.90;;;;;;5093863;28;20020;-71
2023/03/07 04:52:50;;;;;;;38.80;26.30;;;6.30;99.90;;;;;;5093801;28;20058;-63
2023/03/07 04:55:16;;;;;;;41.80;29.75;;;6.20;99.90;;;;;;5093612;28;20474;-71
2023/03/07 04:57:42;;;;;;;47.85;34.38;;;6.10;99.90;;;;;;5093987;28;20073;-65
2023/03/07 05:00:08;;;;;;;47.72;35.60;;;6.00;99.90;;;;;;5093490;28;20105;-66
2023/03/07 05:02:38;;;;;;;43.13;32.38;;;5.70;99.90;;;;;;5093817;28;20028;-67
2023/03/07 05:05:04;;;;;;;36.65;28.02;;;5.50;99.90;;;;;;5093971;28;20032;-65
2023/03/07 05:07:30;;;;;;;34.75;26.30;;;5.60;99.90;;;;;;5093563;28;20074;-65
2023/03/07 05:09:56;;;;;;;29.08;22.77;;;5.70;99.90;;;;;;5093372;28;20052;-68
2023/03/07 05:12:23;;;;;;;28.77;21.60;;;5.90;99.90;;;;;;5093526;28;20488;-62
2023/03/07 05:14:48;;;;;;;26.00;19.10;;;5.90;99.90;;;;;;5093465;28;20056;-62
2023/03/07 05:17:14;;;;;;;26.55;18.30;;;5.90;99.90;;;;;;5093433;28;20052;-71
2023/03/07 05:19:40;;;;;;;26.20;19.55;;;6.00;99.90;;;;;;5093442;28;20069;-72
2023/03/07 05:22:06;;;;;;;71.93;50.47;;;6.00;99.90;;;;;;5093667;28;20032;-71
2023/03/07 05:24:32;;;;;;;61.33;47.05;;;5.90;99.90;;;;;;5093149;28;20089;-65
2023/03/07 05:26:58;;;;;;;46.33;35.00;;;5.80;99.90;;;;;;5093333;28;20046;-71
2023/03/07 05:29:24;;;;;;;47.13;35.58;;;5.80;99.90;;;;;;5093300;28;20086;-67
2023/03/07 05:31:49;;;;;;;58.40;43.30;;;5.90;99.90;;;;;;5093461;28;20533;-65
2023/03/07 05:34:15;;;;;;;65.90;46.15;;;6.00;99.90;;;;;;5093407;28;20024;-68
2023/03/07 05:36:41;;;;;;;76.57;50.72;;;5.90;99.90;;;;;;5093442;28;20024;-64
2023/03/07 05:39:07;;;;;;;67.82;45.25;;;5.90;99.90;;;;;;5093217;28;20024;-70
2023/03/07 05:41:33;;;;;;;68.03;44.63;;;5.90;99.90;;;;;;5093596;28;20418;-66
2023/03/07 05:43:59;;;;;;;70.57;44.05;;;6.00;99.90;;;;;;5093352;28;20055;-67
2023/03/07 05:46:25;;;;;;;85.22;46.83;;;6.20;99.90;;;;;;5092990;28;20378;-67
2023/03/07 05:48:51;;;;;;;75.93;46.72;;;6.40;99.90;;;;;;5094855;28;20028;-68
2023/03/07 05:51:17;;;;;;;78.18;49.72;;;6.50;99.90;;;;;;5097040;28;20099;-72
2023/03/07 05:53:43;;;;;;;98.53;61.00;;;6.40;99.90;;;;;;5096054;28;20020;-62
2023/03/07 05:56:08;;;;;;;112.88;65.47;;;6.40;99.90;;;;;;5096612;28;20028;-66
2023/03/07 05:58:34;;;;;;;137.40;84.57;;;6.40;99.90;;;;;;5096480;28;20028;-64
2023/03/07 06:01:03;;;;;;;118.43;75.35;;;6.20;99.90;;;;;;5096503;28;20024;-63
2023/03/07 06:03:29;;;;;;;88.80;57.33;;;6.30;99.90;;;;;;5096567;28;20020;-65
2023/03/07 06:05:55;;;;;;;76.50;51.60;;;6.50;99.90;;;;;;5095957;28;20067;-70
2023/03/07 06:08:21;;;;;;;68.28;47.15;;;6.80;99.90;;;;;;5096546;28;20056;-66
2023/03/07 06:10:50;;;;;;;61.70;43.33;;;7.00;99.90;;;;;;5096707;28;20020;-71
2023/03/07 06:13:20;;;;;;;46.55;34.33;;;7.10;99.90;;;;;;5095705;28;20378;-68
2023/03/07 06:15:51;;;;;;;41.00;30.80;;;7.20;99.90;;;;;;5094905;28;20024;-66
2023/03/07 06:18:17;;;;;;;33.47;25.52;;;7.20;99.90;;;;;;5092119;28;20043;-72
2023/03/07 06:20:44;;;;;;;30.00;22.38;;;7.40;99.90;;;;;;5094625;28;20036;-69
2023/03/07 06:23:09;;;;;;;25.35;19.00;;;7.40;99.90;;;;;;5094628;28;20467;-64
2023/03/07 06:25:36;;;;;;;22.92;17.83;;;7.40;99.90;;;;;;5095625;28;20142;-67
2023/03/07 06:28:01;;;;;;;20.40;16.60;;;7.40;99.90;;;;;;5096041;28;20488;-65
2023/03/07 06:30:27;;;;;;;18.08;14.82;;;7.50;99.90;;;;;;5095167;28;20102;-65
2023/03/07 06:32:54;;;;;;;20.17;15.32;;;7.60;99.90;;;;;;5096100;28;20466;-64
2023/03/07 06:35:19;;;;;;;86.47;51.50;;;7.70;99.90;;;;;;5094824;28;20031;-66
2023/03/07 06:37:45;;;;;;;57.30;40.30;;;7.70;99.90;;;;;;5093519;28;20024;-69
2023/03/07 06:40:11;;;;;;;129.95;83.85;;;7.80;99.90;;;;;;5092587;28;20024;-67
2023/03/07 06:42:37;;;;;;;197.00;124.57;;;7.80;99.90;;;;;;5093468;28;20020;-66
2023/03/07 06:45:04;;;;;;;252.13;174.57;;;7.90;99.90;;;;;;5093464;28;20103;-66
2023/03/07 06:47:30;;;;;;;188.70;129.93;;;7.80;99.90;;;;;;5093359;28;20512;-62
2023/03/07 06:49:56;;;;;;;152.48;105.47;;;7.60;99.90;;;;;;5094607;28;20428;-69
2023/03/07 06:52:22;;;;;;;132.40;95.00;;;7.50;99.90;;;;;;5095191;28;20020;-68
2023/03/07 06:54:48;;;;;;;125.10;84.40;;;7.60;99.90;;;;;;5095412;28;20024;-65
2023/03/07 06:57:13;;;;;;;107.68;75.57;;;7.70;99.90;;;;;;5095224;28;20024;-62
2023/03/07 06:59:39;;;;;;;102.03;71.78;;;7.90;99.90;;;;;;5093882;28;20016;-70
2023/03/07 07:02:05;;;;;;;85.90;62.25;;;8.00;99.90;;;;;;5096016;28;20020;-63
2023/03/07 07:04:31;;;;;;;80.03;56.15;;;8.30;99.90;;;;;;5095727;28;20076;-62
2023/03/07 07:06:57;;;;;;;61.38;46.67;;;8.90;99.90;;;;;;5095298;28;20103;-66
2023/03/07 07:09:23;;;;;;;49.88;35.67;;;9.50;99.90;;;;;;5095345;28;20058;-67
2023/03/07 07:11:48;;;;;;;47.60;36.05;;;12.00;98.90;;;;;;5095116;28;20020;-67
2023/03/07 07:14:14;;;;;;;41.65;33.25;;;13.50;91.40;;;;;;5088000;28;20035;-64
2023/03/07 07:16:40;;;;;;;39.33;30.50;;;15.50;84.50;;;;;;5093246;28;20032;-71
2023/03/07 07:19:05;;;;;;;32.15;27.48;;;17.80;72.80;;;;;;5091647;28;20071;-70
2023/03/07 07:21:31;;;;;;;30.83;25.85;;;19.20;59.80;;;;;;5093239;28;20035;-69
2023/03/07 07:23:58;;;;;;;29.73;24.15;;;20.10;55.30;;;;;;5093901;28;20024;-69
2023/03/07 07:26:25;;;;;;;25.40;22.13;;;21.10;53.00;;;;;;5093851;28;20110;-62
2023/03/07 07:28:51;;;;;;;22.75;20.15;;;21.70;48.20;;;;;;5075465;28;20531;-68
2023/03/07 07:31:17;;;;;;;25.13;21.23;;;22.20;48.30;;;;;;5094284;28;20020;-65
2023/03/07 07:33:42;;;;;;;22.45;20.05;;;22.40;44.60;;;;;;5092480;28;20436;-70
2023/03/07 07:36:08;;;;;;;24.00;21.20;;;21.90;44.80;;;;;;5088693;28;20036;-68
2023/03/07 07:38:35;;;;;;;23.90;21.13;;;21.00;44.40;;;;;;5093836;28;20074;-70
2023/03/07 07:41:01;;;;;;;21.90;19.55;;;19.80;47.10;;;;;;5092893;28;20043;-70
2023/03/07 07:43:27;;;;;;;20.92;18.65;;;19.20;48.80;;;;;;5091284;28;20039;-66
2023/03/07 07:45:53;;;;;;;20.25;17.55;;;18.20;49.50;;;;;;5094232;28;20028;-66
2023/03/07 07:48:19;;;;;;;17.10;15.35;;;17.20;50.00;;;;;;5092627;28;20512;-67
2023/03/07 07:50:45;;;;;;;22.77;18.88;;;17.20;52.70;;;;;;5092909;28;20140;-66
2023/03/07 07:53:12;;;;;;;20.15;18.05;;;19.40;49.90;;;;;;5092545;28;20040;-64
2023/03/07 07:55:38;;;;;;;17.20;15.48;;;20.80;47.90;;;;;;5093486;28;20032;-64
2023/03/07 07:58:04;;;;;;;15.18;13.57;;;22.20;47.30;;;;;;5090784;28;20092;-65
2023/03/07 08:00:30;;;;;;;15.68;14.07;;;23.30;43.70;;;;;;5093102;28;20024;-64
2023/03/07 08:02:57;;;;;;;14.30;12.88;;;24.00;41.90;;;;;;5090593;28;20016;-64
